createdAt,value
2018-12-11T00:00:07.740Z,1.90
2018-12-11T00:05:10.196Z,2.10
2018-12-11T00:10:12.705Z,2.00
2018-12-11T00:15:15.188Z,1.90
2018-12-11T00:20:17.656Z,2.10
2018-12-11T00:25:20.277Z,1.93
2018-12-11T00:30:22.733Z,2.10
2018-12-11T00:35:25.429Z,1.73
2018-12-11T00:40:28.056Z,1.67
2018-12-11T00:45:30.981Z,1.80
2018-12-11T00:50:33.499Z,2.20
2018-12-11T00:55:36.780Z,1.90
2018-12-11T01:00:39.560Z,1.90
2018-12-11T01:05:42.076Z,1.77
2018-12-11T01:10:44.536Z,1.87
2018-12-11T01:15:47.001Z,1.77
2018-12-11T01:20:49.692Z,1.80
2018-12-11T01:25:52.487Z,1.80
2018-12-11T01:30:54.944Z,1.50
2018-12-11T01:35:57.408Z,1.80
2018-12-11T01:40:59.868Z,1.73
2018-12-11T01:46:02.444Z,1.73
2018-12-11T01:51:04.996Z,1.30
2018-12-11T01:56:07.535Z,1.70
2018-12-11T02:01:09.992Z,1.50
2018-12-11T02:06:12.509Z,1.40
2018-12-11T02:11:14.969Z,1.70
2018-12-11T02:16:17.464Z,1.50
2018-12-11T02:21:19.984Z,1.63
2018-12-11T02:26:22.577Z,1.60
2018-12-11T02:31:25.037Z,1.50
2018-12-11T02:36:27.608Z,1.50
2018-12-11T02:41:30.115Z,1.47
2018-12-11T02:46:32.608Z,1.47
2018-12-11T02:51:35.082Z,1.60
2018-12-11T02:56:37.809Z,1.33
2018-12-11T03:01:40.311Z,1.30
2018-12-11T03:06:42.773Z,1.40
2018-12-11T03:11:45.260Z,1.40
2018-12-11T03:16:47.796Z,1.33
2018-12-11T03:21:50.286Z,1.27
2018-12-11T03:26:52.797Z,1.37
2018-12-11T03:31:55.447Z,1.13
2018-12-11T03:36:57.912Z,1.30
2018-12-11T03:42:00.421Z,1.37
2018-12-11T03:47:02.915Z,1.20
2018-12-11T03:52:05.373Z,1.50
2018-12-11T03:57:07.866Z,1.20
2018-12-11T04:02:10.394Z,1.43
2018-12-11T04:07:12.899Z,1.10
2018-12-11T04:12:15.544Z,1.40
2018-12-11T04:17:18.533Z,1.40
2018-12-11T04:22:21.024Z,1.40
2018-12-11T04:27:23.579Z,1.50
2018-12-11T04:32:26.164Z,1.43
2018-12-11T04:37:28.818Z,1.13
2018-12-11T04:42:31.282Z,1.10
2018-12-11T04:47:33.810Z,1.30
2018-12-11T04:52:36.268Z,1.13
2018-12-11T04:57:38.780Z,1.30
2018-12-11T05:02:41.269Z,1.10
2018-12-11T05:07:43.728Z,1.40
2018-12-11T05:12:46.242Z,1.07
2018-12-11T05:17:48.845Z,1.20
2018-12-11T05:22:51.358Z,1.13
2018-12-11T05:27:54.140Z,1.30
2018-12-11T05:32:56.638Z,1.30
2018-12-11T05:37:59.279Z,1.20
2018-12-11T05:43:01.743Z,1.00
2018-12-11T05:48:04.279Z,1.10
2018-12-11T05:53:07.195Z,1.13
2018-12-11T05:58:09.688Z,1.50
2018-12-11T06:03:12.164Z,0.93
2018-12-11T06:08:14.840Z,0.90
2018-12-11T06:13:17.357Z,1.10
2018-12-11T06:18:19.880Z,1.40
2018-12-11T06:23:22.341Z,1.10
2018-12-11T06:28:24.796Z,1.00
2018-12-11T06:33:27.256Z,1.00
2018-12-11T06:38:30.248Z,1.00
2018-12-11T06:43:32.718Z,1.27
2018-12-11T06:48:35.182Z,0.97
2018-12-11T06:53:37.640Z,0.83
2018-12-11T06:58:40.861Z,1.00
2018-12-11T07:03:43.528Z,0.97
2018-12-11T07:08:45.988Z,1.00
2018-12-11T07:13:48.448Z,0.90
2018-12-11T07:18:50.960Z,1.20
2018-12-11T07:23:53.644Z,1.00
2018-12-11T07:28:56.112Z,0.90
2018-12-11T07:33:58.603Z,0.93
2018-12-11T07:39:01.068Z,1.07
2018-12-11T07:44:03.612Z,1.03
2018-12-11T07:49:06.204Z,1.00
2018-12-11T07:54:09.026Z,1.27
2018-12-11T07:59:11.937Z,1.47
2018-12-11T08:04:14.425Z,1.10
2018-12-11T08:09:16.889Z,1.40
2018-12-11T08:14:19.417Z,1.30
2018-12-11T08:19:21.914Z,2.03
2018-12-11T08:24:24.745Z,1.60
2018-12-11T08:29:27.272Z,1.43
2018-12-11T08:34:30.009Z,1.40
2018-12-11T08:39:32.480Z,1.27
2018-12-11T08:44:35.193Z,1.10
2018-12-11T08:49:37.708Z,0.93
2018-12-11T08:54:40.197Z,1.40
2018-12-11T08:59:42.713Z,1.40
2018-12-11T09:04:46.075Z,1.70
2018-12-11T09:09:48.597Z,1.77
2018-12-11T09:14:51.064Z,1.20
2018-12-11T09:19:54.576Z,1.03
2018-12-11T09:24:57.041Z,1.40
2018-12-11T09:29:59.501Z,0.67
2018-12-11T09:35:01.974Z,1.10
2018-12-11T09:40:05.442Z,0.90
2018-12-11T09:45:07.928Z,1.00
2018-12-11T09:50:10.466Z,1.00
2018-12-11T09:55:13.019Z,1.00
2018-12-11T10:00:15.493Z,0.97
2018-12-11T10:05:17.989Z,1.20
2018-12-11T10:10:20.488Z,1.20
2018-12-11T10:15:23.560Z,1.17
2018-12-11T10:20:26.149Z,0.90
2018-12-11T10:25:28.952Z,0.50
2018-12-11T10:30:33.488Z,1.00
2018-12-11T10:35:35.955Z,1.00
2018-12-11T10:40:38.413Z,0.97
2018-12-11T10:45:40.900Z,0.90
2018-12-11T10:50:43.385Z,0.90
2018-12-11T10:55:45.848Z,1.07
2018-12-11T11:00:50.231Z,1.13
2018-12-11T11:05:52.704Z,0.70
2018-12-11T11:10:55.200Z,1.10
2018-12-11T11:15:57.732Z,1.40
2018-12-11T11:21:00.669Z,0.77
2018-12-11T11:26:03.133Z,1.00
2018-12-11T11:31:05.629Z,0.90
2018-12-11T11:36:08.131Z,0.93
2018-12-11T11:41:10.597Z,1.00
2018-12-11T11:46:13.064Z,1.10
2018-12-11T11:51:15.552Z,1.00
2018-12-11T11:56:18.012Z,1.13
2018-12-11T12:01:20.536Z,1.07
2018-12-11T12:06:23.026Z,1.10
2018-12-11T12:11:25.518Z,1.00
2018-12-11T12:16:28.012Z,1.37
2018-12-11T12:21:30.589Z,1.27
2018-12-11T12:26:33.112Z,1.40
2018-12-11T12:31:35.652Z,1.20
2018-12-11T12:36:38.276Z,0.93
2018-12-11T12:41:40.913Z,1.00
2018-12-11T12:46:43.680Z,1.15
2018-12-11T12:51:46.194Z,1.73
2018-12-11T12:56:48.681Z,1.03
2018-12-11T13:01:51.379Z,1.73
2018-12-11T13:06:53.875Z,1.77
2018-12-11T13:11:56.373Z,1.60
2018-12-11T13:16:58.839Z,1.73
2018-12-11T13:22:01.303Z,1.10
2018-12-11T13:27:03.824Z,1.23
2018-12-11T13:32:06.316Z,1.40
2018-12-11T13:37:08.808Z,1.30
2018-12-11T13:42:11.365Z,1.10
2018-12-11T13:47:13.903Z,1.10
2018-12-11T13:52:16.361Z,1.30
2018-12-11T13:57:18.828Z,1.40
2018-12-11T14:02:21.328Z,1.37
2018-12-11T14:07:23.820Z,2.13
2018-12-11T14:12:26.284Z,1.40
2018-12-11T14:17:28.836Z,1.17
2018-12-11T14:22:31.463Z,1.03
2018-12-11T14:27:34.369Z,1.13
2018-12-11T14:32:36.873Z,1.40
2018-12-11T14:37:39.997Z,1.10
2018-12-11T14:42:42.501Z,1.37
2018-12-11T14:47:44.998Z,1.50
2018-12-11T14:52:48.137Z,1.07
2018-12-11T14:57:50.595Z,1.57
2018-12-11T15:02:53.097Z,1.23
2018-12-11T15:07:55.720Z,1.13
2018-12-11T15:12:58.488Z,1.30
2018-12-11T15:18:00.962Z,1.23
2018-12-11T15:23:03.455Z,0.80
2018-12-11T15:28:05.937Z,1.27
2018-12-11T15:33:08.425Z,1.50
2018-12-11T15:38:10.898Z,1.17
2018-12-11T15:43:14.553Z,1.10
2018-12-11T15:48:17.176Z,1.37
2018-12-11T15:53:19.697Z,1.10
2018-12-11T15:58:24.971Z,1.00
2018-12-11T16:03:26.714Z,0.70
2018-12-11T16:08:29.190Z,0.80
2018-12-11T16:13:31.659Z,0.73
2018-12-11T16:18:34.137Z,1.07
2018-12-11T16:23:36.605Z,0.75
2018-12-11T16:28:39.069Z,1.00
2018-12-11T16:33:41.528Z,0.80
2018-12-11T16:38:44.006Z,0.70
2018-12-11T16:43:46.473Z,0.90
2018-12-11T16:48:48.988Z,0.60
2018-12-11T16:53:52.264Z,0.73
2018-12-11T16:58:54.817Z,0.80
2018-12-11T17:03:57.344Z,1.00
2018-12-11T17:08:59.899Z,0.93
2018-12-11T17:14:02.866Z,1.10
2018-12-11T17:19:05.341Z,0.73
2018-12-11T17:24:07.810Z,1.00
2018-12-11T17:29:10.272Z,1.43
2018-12-11T17:34:13.262Z,1.17
2018-12-11T17:39:16.089Z,0.90
2018-12-11T17:44:18.569Z,0.87
2018-12-11T17:49:21.055Z,0.73
2018-12-11T17:54:23.515Z,1.23
2018-12-11T17:59:26.016Z,1.20
2018-12-11T18:04:28.476Z,1.00
2018-12-11T18:09:31.013Z,0.90
2018-12-11T18:14:33.481Z,1.10
2018-12-11T18:19:35.944Z,0.90
2018-12-11T18:24:38.546Z,0.80
2018-12-11T18:29:41.144Z,0.97
2018-12-11T18:34:44.182Z,0.70
2018-12-11T18:39:46.658Z,1.40
2018-12-11T18:44:49.134Z,1.20
2018-12-11T18:49:51.606Z,1.13
2018-12-11T18:54:54.084Z,0.72
2018-12-11T18:59:56.574Z,0.90
2018-12-11T19:04:59.263Z,0.80
2018-12-11T19:10:02.466Z,1.00
2018-12-11T19:15:05.545Z,1.07
2018-12-11T19:20:08.112Z,0.87
2018-12-11T19:25:14.430Z,0.77
2018-12-11T19:30:16.912Z,1.07
2018-12-11T19:35:19.429Z,0.80
2018-12-11T19:40:22.716Z,0.80
2018-12-11T19:45:25.380Z,0.70
2018-12-11T19:50:28.536Z,0.93
2018-12-11T19:55:31.132Z,0.80
2018-12-11T20:00:34.121Z,0.50
2018-12-11T20:05:36.593Z,0.70
2018-12-11T20:10:39.057Z,0.50
2018-12-11T20:15:41.526Z,0.90
2018-12-11T20:20:43.988Z,0.73
2018-12-11T20:25:46.490Z,0.80
2018-12-11T20:30:49.111Z,0.80
2018-12-11T20:35:51.740Z,0.80
2018-12-11T20:40:54.205Z,0.70
2018-12-11T20:45:56.704Z,0.60
2018-12-11T20:50:59.171Z,0.60
2018-12-11T20:56:01.640Z,0.80
2018-12-11T21:01:04.252Z,0.50
2018-12-11T21:06:06.746Z,0.67
2018-12-11T21:11:09.233Z,0.70
2018-12-11T21:16:12.288Z,0.63
2018-12-11T21:21:15.327Z,0.70
2018-12-11T21:26:18.550Z,0.50
2018-12-11T21:31:21.280Z,0.70
2018-12-11T21:36:23.804Z,0.57
2018-12-11T21:41:26.464Z,1.00
2018-12-11T21:46:28.933Z,0.60
2018-12-11T21:51:31.407Z,0.70
2018-12-11T21:56:34.291Z,0.60
2018-12-11T22:01:36.788Z,0.50
2018-12-11T22:06:39.256Z,0.63
2018-12-11T22:11:42.641Z,0.50
2018-12-11T22:16:45.139Z,0.60
2018-12-11T22:21:47.701Z,0.60
2018-12-11T22:26:50.192Z,0.50
2018-12-11T22:31:52.684Z,0.50
2018-12-11T22:36:56.070Z,0.50
2018-12-11T22:41:58.597Z,0.57
2018-12-11T22:47:01.102Z,0.43
2018-12-11T22:52:03.779Z,0.60
2018-12-11T22:57:06.281Z,0.60
2018-12-11T23:02:08.870Z,0.43
2018-12-11T23:07:11.560Z,0.53
2018-12-11T23:12:14.976Z,0.47
2018-12-11T23:17:17.681Z,0.50
2018-12-11T23:22:20.277Z,0.40
2018-12-11T23:27:22.765Z,0.43
2018-12-11T23:32:25.253Z,0.33
2018-12-11T23:37:27.755Z,0.50
2018-12-11T23:42:30.853Z,0.67
2018-12-11T23:47:33.495Z,0.60
2018-12-11T23:52:36.140Z,0.30
2018-12-11T23:57:38.640Z,0.40
